18 de agosto de 2022

Hora Código Clima Temp. Visibilidade Tecto Vento METAR/SPECI
20:30
V
24 °C 10 km+ - 290° 290° 12 kt METAR LFBA 181830Z AUTO 29012KT CAVOK 24/15 Q1017 NOSIG
20:00
V
24 °C 10 km+ - 300° 300° 16 kt METAR LFBA 181800Z AUTO 30016KT CAVOK 24/14 Q1016 NOSIG
19:30
V
26 °C 10 km+ - 290° 290° 17 kt METAR LFBA 181730Z AUTO 29017KT 9999 //////TCU 26/15 Q1016 BECMG NSC
19:00
V
27 °C 10 km+ - 290° 290° 14 kt METAR LFBA 181700Z AUTO 29014KT 9999 //////TCU 27/14 Q1016 BECMG NSC
18:30
V
27 °C 10 km+ - 290° 290° 14 kt METAR LFBA 181630Z AUTO 29014KT CAVOK 27/13 Q1016 NOSIG
18:00
V
27 °C 10 km+ - 310° 310° 11 kt METAR LFBA 181600Z AUTO 31011KT 280V340 CAVOK 27/13 Q1015 TEMPO SCT040TCU
17:30
V
28 °C 10 km+ - 300° 300° 10 kt METAR LFBA 181530Z AUTO 30010KT 270V340 CAVOK 28/13 Q1015 TEMPO SCT040TCU
17:00
V
27 °C 10 km+ - 310° 310° 10 kt METAR LFBA 181500Z AUTO 31010KT 280V340 CAVOK 27/12 Q1016 TEMPO SCT040TCU
16:30
V
27 °C 10 km+ - 330° 330° 11 kt METAR LFBA 181430Z AUTO 33011KT CAVOK 27/13 Q1016 TEMPO SCT040TCU
16:00
V
27 °C 10 km+ - 340° 340° 10 kt METAR LFBA 181400Z AUTO 34010KT 290V010 CAVOK 27/13 Q1016 TEMPO SCT040TCU
15:30
V
26 °C 10 km+ - 330° 330° 9 kt METAR LFBA 181330Z AUTO 33009KT 280V360 CAVOK 26/13 Q1016 TEMPO SCT040TCU
15:00
V
25 °C 10 km+ - 310° 310° 10 kt METAR LFBA 181300Z AUTO 31010KT 280V340 9999 FEW044 SCT078 25/13 Q1016 TEMPO SCT040TCU
14:30
V
25 °C 10 km+ - 310° 310° 7 kt METAR LFBA 181230Z AUTO 31007KT 260V360 9999 FEW041 25/14 Q1016 TEMPO SCT040TCU
14:00
V
24 °C 10 km+ - 310° 310° 6 kt METAR LFBA 181200Z AUTO 31006KT 270V340 CAVOK 24/15 Q1016 TEMPO SCT040TCU
13:30
V
24 °C 10 km+ 3.500 ft 310° 310° 10 kt METAR LFBA 181130Z AUTO 31010KT 250V340 9999 BKN035 BKN043 24/15 Q1016 BECMG SCT040TCU
13:00
V
24 °C 10 km+ - 310° 310° 9 kt METAR LFBA 181100Z AUTO 31009KT 260V350 9999 FEW031 24/14 Q1016 BECMG SCT040TCU
12:30
M
23 °C 10 km+ 2.900 ft 270° 270° 8 kt METAR LFBA 181030Z AUTO 27008KT 230V320 9999 BKN029 23/15 Q1016 BECMG SCT040TCU
12:00
V
23 °C 10 km+ - 290° 290° 8 kt METAR LFBA 181000Z AUTO 29008KT 260V350 9999 SCT026 23/15 Q1016 BECMG SCT040TCU
11:30
M
22 °C 10 km+ 2.200 ft 300° 300° 7 kt METAR LFBA 180930Z AUTO 30007KT 260V340 9999 BKN022 22/16 Q1016 BECMG SCT040TCU
11:00
V
21 °C 10 km+ - 280° 280° 5 kt METAR LFBA 180900Z AUTO 28005KT 210V340 9999 SCT018 21/16 Q1016 BECMG SCT040TCU
10:30
M
20 °C 10 km+ 1.600 ft 270° 270° 4 kt METAR LFBA 180830Z AUTO 27004KT 200V340 9999 BKN016/// OVC094/// //////CB 20/16 Q1016 NOSIG
10:00
M
19 °C 10 km+ 1.000 ft Var Var 2 kt METAR LFBA 180800Z AUTO VRB02KT 9999 OVC010 19/16 Q1016 BECMG SCT015TCU SCT040
09:30
I
18 °C 10 km+ 700 ft 280° 280° 3 kt METAR LFBA 180730Z AUTO 28003KT 250V330 9999 OVC007 18/16 Q1016 BECMG SCT015TCU SCT040
09:00
I
17 °C 10 km+ 600 ft Var Var 2 kt METAR LFBA 180700Z AUTO VRB02KT 9999 OVC006 17/16 Q1016 BECMG SCT015TCU SCT040
08:30
I
17 °C 9 km 500 ft 290° 290° 5 kt METAR LFBA 180630Z AUTO 29005KT 9000 OVC005 17/16 Q1015 BECMG SCT015TCU SCT040
08:00
I
17 °C 9 km 500 ft 310° 310° 5 kt METAR LFBA 180600Z AUTO 31005KT 9000 OVC005 17/16 Q1015 BECMG SCT015TCU SCT040
07:30
L
17 °C 7 km 400 ft 310° 310° 4 kt METAR LFBA 180530Z AUTO 31004KT 7000 OVC004 17/16 Q1015
07:00
L
17 °C 7 km 400 ft 300° 300° 4 kt METAR LFBA 180500Z AUTO 30004KT 7000 OVC004 17/16 Q1015
06:30
L
17 °C 10 km+ 400 ft Var Var 3 kt METAR LFBA 180430Z AUTO VRB03KT 9999 OVC004 17/16 Q1015
06:00
I
16 °C 10 km+ 500 ft 300° 300° 3 kt METAR LFBA 180400Z AUTO 30003KT 270V360 9999 BKN005 16/16 Q1014
05:30
V
16 °C 10 km+ - 300° 300° 3 kt METAR LFBA 180330Z AUTO 30003KT 9999 FEW006 16/15 Q1014
05:00
V
17 °C 10 km+ - 280° 280° 6 kt METAR LFBA 180300Z AUTO 28006KT 9999 FEW006 17/16 Q1014
04:30
V
17 °C 10 km+ - 280° 280° 5 kt METAR LFBA 180230Z AUTO 28005KT CAVOK 17/16 Q1014
04:00
V
17 °C 10 km+ - 260° 260° 5 kt METAR LFBA 180200Z AUTO 26005KT CAVOK 17/16 Q1014
03:30
V
17 °C 10 km+ - 230° 230° 6 kt METAR LFBA 180130Z AUTO 23006KT 200V270 CAVOK 17/16 Q1015
03:00
V
18 °C 10 km+ - 240° 240° 7 kt METAR LFBA 180100Z AUTO 24007KT CAVOK 18/16 Q1015
02:30
V
18 °C 10 km+ - 250° 250° 5 kt METAR LFBA 180030Z AUTO 25005KT 220V280 CAVOK 18/15 Q1015
02:00
V
18 °C 10 km+ - 260° 260° 6 kt METAR LFBA 180000Z AUTO 26006KT 9999 FEW041 18/16 Q1015
01:30
V
19 °C 10 km+ 4.100 ft 260° 260° 4 kt METAR LFBA 172330Z AUTO 26004KT 230V290 9999 BKN041 19/16 Q1015
01:00
V
19 °C 10 km+ - 260° 260° 3 kt METAR LFBA 172300Z AUTO 26003KT 220V280 9999 ///TCU 19/15 Q1015
00:30
V
20 °C 10 km+ - 260° 260° 4 kt METAR LFBA 172230Z AUTO 26004KT 9999 //////CB 20/16 Q1015
00:00
V
20 °C 10 km+ - 280° 280° 6 kt METAR LFBA 172200Z AUTO 28006KT CAVOK 20/16 Q1015

17 de agosto de 2022

Hora Código Clima Temp. Visibilidade Tecto Vento METAR/SPECI
23:30
V
20 °C 10 km+ - 290° 290° 6 kt METAR LFBA 172130Z AUTO 29006KT CAVOK 20/16 Q1014
23:00
V
21 °C 10 km+ 4.400 ft 270° 270° 9 kt METAR LFBA 172100Z AUTO 27009KT 9999 FEW034 BKN044 BKN058 21/15 Q1014
22:30
V
21 °C 10 km+ 4.700 ft 250° 250° 5 kt METAR LFBA 172030Z AUTO 25005KT 9999 BKN047 BKN060 21/15 Q1014
22:00
V
21 °C 10 km+ - 270° 270° 6 kt METAR LFBA 172000Z AUTO 27006KT CAVOK 21/15 Q1013 TEMPO FEW040CB
21:30
V
21 °C 10 km+ - 260° 260° 5 kt METAR LFBA 171930Z AUTO 26005KT 9999 ///TCU 21/15 Q1013 TEMPO FEW040CB
21:00
V
21 °C 10 km+ - 310° 310° 4 kt METAR LFBA 171900Z AUTO 31004KT CAVOK 21/15 Q1013 TEMPO VRB15G25KT 4000 TSRA FEW040CB
20:30
V
22 °C 10 km+ - 300° 300° 8 kt METAR LFBA 171830Z AUTO 30008KT CAVOK 22/15 Q1013 TEMPO VRB15G25KT 4000 TSRA FEW040CB
20:00
V
23 °C 10 km+ - 280° 280° 11 kt METAR LFBA 171800Z AUTO 28011KT CAVOK 23/15 Q1012 TEMPO VRB15G25KT 4000 TSRA BKN014 SCT040CB
19:30
V
23 °C 10 km+ - 290° 290° 9 kt METAR LFBA 171730Z AUTO 29009KT CAVOK 23/15 Q1012 TEMPO VRB15G25KT 4000 TSRA BKN014 SCT040CB
19:00
V
24 °C 10 km+ - 290° 290° 13 kt METAR LFBA 171700Z AUTO 29013KT CAVOK 24/15 Q1012 TEMPO VRB15G25KT 4000 TSRA BKN014 SCT040CB
18:30
V
25 °C 10 km+ - 300° 300° 14 kt METAR LFBA 171630Z AUTO 30014KT 270V330 9999 FEW040 25/15 Q1012 TEMPO VRB15G25KT 4000 TSRA BKN014 SCT040CB
18:00
V
26 °C 10 km+ - 270° 270° 11 kt METAR LFBA 171600Z AUTO 27011KT 9999 FEW043 26/15 Q1012 TEMPO VRB15G25KT 4000 TSRA BKN014 SCT040CB
17:30
V
27 °C 10 km+ 4.600 ft 300° 300° 12 kt METAR LFBA 171530Z AUTO 30012KT 260V320 9999 BKN046 BKN056 BKN074 27/16 Q1011 TEMPO VRB15G25KT 4000 TSRA BKN014 SCT040CB
17:00
V
25 °C 10 km+ - 280° 280° 9 kt METAR LFBA 171500Z AUTO 28009KT 9999 ///CB 25/16 Q1011 TEMPO VRB15G25KT 4000 TSRA BKN014 SCT040CB
16:30
V
27 °C 10 km+ 7.600 ft 300° 300° 7 kt METAR LFBA 171430Z AUTO 30007KT 250V360 9999 SCT044 SCT056 BKN076 27/15 Q1011 TEMPO VRB15G25KT 4000 TSRA BKN014 SCT040CB
16:00
V
26 °C 10 km+ 4.900 ft 330° 330° 7 kt METAR LFBA 171400Z AUTO 33007KT 270V020 9999 SCT041 BKN049 BKN060 26/16 Q1011 TEMPO VRB15G25KT 4000 TSRA BKN014 SCT040CB
15:30
V
25 °C 10 km+ - 310° 310° 9 kt METAR LFBA 171330Z AUTO 31009KT 280V340 CAVOK 25/16 Q1011 TEMPO VRB15G25KT 4000 TSRA BKN014 SCT040CB
15:00
V
25 °C 10 km+ 7.400 ft 300° 300° 13 kt METAR LFBA 171300Z AUTO 30013KT 9999 SCT046 SCT054 BKN074 25/16 Q1011 TEMPO VRB15G25KT 4000 TSRA BKN014 SCT040CB
14:30
V
26 °C 10 km+ - 230° 230° 5 kt METAR LFBA 171230Z AUTO 23005KT 160V280 9999 ///CB 26/15 Q1011 TEMPO VRB15G25KT 4000 TSRA BKN014 SCT040CB
14:00
V
24 °C 10 km+ 4.900 ft 270° 270° 6 kt METAR LFBA 171200Z AUTO 27006KT 230V310 9999 SCT042/// BKN049/// OVC060/// //////CB 24/15 Q1012 NOSIG
13:30
V
26 °C 10 km+ 6.400 ft 200° 200° 7 kt METAR LFBA 171130Z AUTO 20007KT 140V280 9999 FEW040 BKN064 26/14 Q1012 TEMPO FEW040CB
13:00
V
25 °C 10 km+ - Var Var 4 kt METAR LFBA 171100Z AUTO VRB04KT CAVOK 25/15 Q1012 TEMPO FEW040CB
12:30
V
24 °C 10 km+ 5.600 ft 240° 240° 5 kt METAR LFBA 171030Z AUTO 24005KT 190V320 9999 FEW030 BKN056 24/16 Q1012 TEMPO FEW040CB
12:00
V
23 °C 10 km+ - 260° 260° 5 kt METAR LFBA 171000Z AUTO 26005KT 220V300 9999 FEW027 23/16 Q1012 NOSIG
11:30
V
23 °C 10 km+ - 230° 230° 4 kt METAR LFBA 170930Z AUTO 23004KT 190V290 9999 FEW017 23/17 Q1012 NOSIG
11:00
V
21 °C 10 km+ - 090° 090° 4 kt METAR LFBA 170900Z AUTO 09004KT 030V130 9999 FEW020 SCT032 21/17 Q1012 NOSIG
10:30
V
20 °C 10 km+ - 110° 110° 6 kt METAR LFBA 170830Z AUTO 11006KT 070V140 9999 FEW008 20/17 Q1012 NOSIG
10:00
V
20 °C 10 km+ 5.800 ft 110° 110° 4 kt METAR LFBA 170800Z AUTO 11004KT 080V140 9999 FEW008 SCT029 BKN058 20/17 Q1011 TEMPO BKN006
09:30
V
19 °C 10 km+ - 100° 100° 7 kt METAR LFBA 170730Z AUTO 10007KT CAVOK 19/18 Q1012 TEMPO BKN006
09:00
V
17 °C 10 km+ 6.000 ft 120° 120° 6 kt METAR LFBA 170700Z AUTO 12006KT 9999 SCT004 BKN060 17/17 Q1011 TEMPO BKN006
08:30
V
17 °C 10 km+ 6.000 ft 110° 110° 3 kt METAR LFBA 170630Z AUTO 11003KT 9999 FEW003 BKN060 17/17 Q1011 TEMPO BKN006
08:00
V
16 °C 10 km+ - 120° 120° 1 kt METAR LFBA 170600Z AUTO 12001KT 9999 FEW003 SCT060 16/16 Q1011
07:30
V
15 °C 9 km - 110° 110° 4 kt METAR LFBA 170530Z AUTO 11004KT 9000 NSC 15/15 Q1011
07:00
I
15 °C 3,7 km - 070° 070° 2 kt METAR LFBA 170500Z AUTO 07002KT 9999 3700 NSC 15/15 Q1011
06:30
V
16 °C 10 km+ - 320° 320° 3 kt METAR LFBA 170430Z AUTO 32003KT CAVOK 16/15 Q1010
06:00
V
15 °C 10 km+ - Var Var 2 kt METAR LFBA 170400Z AUTO VRB02KT CAVOK 15/15 Q1010
05:30
V
16 °C 10 km+ - Var Var 2 kt METAR LFBA 170330Z AUTO VRB02KT CAVOK 16/15 Q1010
05:00
V
16 °C 10 km+ - 230° 230° 4 kt METAR LFBA 170300Z AUTO 23004KT CAVOK 16/15 Q1010
04:30
V
17 °C 10 km+ - 250° 250° 4 kt METAR LFBA 170230Z AUTO 25004KT 210V270 CAVOK 17/16 Q1010
04:00
V
17 °C 10 km+ - 260° 260° 5 kt METAR LFBA 170200Z AUTO 26005KT CAVOK 17/16 Q1010
03:30
V
17 °C 10 km+ - Var Var 2 kt METAR LFBA 170130Z AUTO VRB02KT CAVOK 17/16 Q1010
03:00
V
17 °C 10 km+ - 290° 290° 5 kt METAR LFBA 170100Z AUTO 29005KT 9999 //////TCU 17/16 Q1010
02:30
V
17 °C 10 km+ - Var Var 3 kt METAR LFBA 170030Z AUTO VRB03KT CAVOK 17/16 Q1011
02:00
V
17 °C 8 km 5.400 ft 330° 330° 3 kt METAR LFBA 170000Z AUTO 33003KT 240V020 8000 -RA FEW024/// SCT035/// BKN054/// //////CB 17/16 Q1011
01:30
V
17 °C 10 km+ 3.000 ft 040° 040° 3 kt METAR LFBA 162330Z AUTO 04003KT 300V100 9999 SCT023/// BKN030/// BKN130/// ///CB 17/16 Q1012
01:00
V
16 °C 10 km+ 14.000 ft 230° 230° 5 kt METAR LFBA 162300Z AUTO 23005KT 180V280 9999 VCTS FEW044/// BKN140/// OVC200/// //////CB 16/15 Q1011
00:30
I
17 °C 4,9 km 3.800 ft 250° 250° 15 - 28 kt METAR LFBA 162230Z AUTO 25015G28KT 190V290 4900 +TSRA BR FEW019/// BKN038/// BKN058/// //////CB 17/16 Q1011
00:00
V
20 °C 10 km+ 5.000 ft 270° 270° 4 kt METAR LFBA 162200Z AUTO 27004KT 210V310 9999 TS FEW010/// BKN050/// BKN100/// //////CB 20/19 Q1010

16 de agosto de 2022

Hora Código Clima Temp. Visibilidade Tecto Vento METAR/SPECI
23:30
V
20 °C 10 km+ - 200° 200° 3 kt METAR LFBA 162130Z AUTO 20003KT 9999 //////CB 20/19 Q1009
23:00
V
20 °C 9 km - 110° 110° 5 kt METAR LFBA 162100Z AUTO 11005KT 9000 //////CB 20/19 Q1009
22:30
V
20 °C 10 km+ - Var Var 3 kt METAR LFBA 162030Z AUTO VRB03KT 9999 //////CB 20/18 Q1009
22:00
V
20 °C 8 km - 130° 130° 3 kt METAR LFBA 162000Z AUTO 13003KT 100V170 8000 //////CB 20/19 Q1009 TEMPO VRB25G40KT 2000 TSRAGR
21:30
V
21 °C 10 km+ - Var Var 2 kt METAR LFBA 161930Z AUTO VRB02KT 9999 -TSRA //////CB 21/19 Q1009 TEMPO VRB25G40KT 2000 TSRAGR
21:00
V
21 °C 10 km+ - 070° 070° 5 kt METAR LFBA 161900Z AUTO 07005KT 040V110 9999 ///CB 21/19 Q1008 TEMPO VRB25G40KT 2000 TSRAGR
20:30
V
23 °C 10 km+ 6.800 ft 150° 150° 6 kt METAR LFBA 161830Z AUTO 15006KT 120V180 9999 TSRA FEW034/// BKN068/// BKN110/// ///CB 23/19 Q1009 TEMPO VRB25G40KT 2000 TSRAGR
20:00
V
24 °C 10 km+ - 120° 120° 8 kt METAR LFBA 161800Z AUTO 12008KT 9999 ///CB 24/18 Q1008 TEMPO VRB20G30KT 4000
19:30
V
26 °C 10 km+ - 340° 340° 4 kt METAR LFBA 161730Z AUTO 34004KT 310V030 9999 TS //////CB 26/18 Q1007 TEMPO VRB20G30KT 4000
19:00
V
26 °C 10 km+ - 360° 360° 4 kt METAR LFBA 161700Z AUTO 36004KT 9999 VCTS ///CB 26/18 Q1007 NOSIG
18:30
V
26 °C 10 km+ - Var Var 3 kt METAR LFBA 161630Z AUTO VRB03KT 9999 ///CB 26/18 Q1007 TEMPO TSRA
18:00
V
24 °C 10 km+ 11.000 ft Var Var 3 kt METAR LFBA 161600Z AUTO VRB03KT 9999 RA FEW031/// SCT052/// BKN110/// //////CB 24/18 Q1007 TEMPO TSRA
17:30
V
24 °C 10 km+ - 340° 340° 5 kt METAR LFBA 161530Z AUTO 34005KT 320V030 9999 ///CB 24/19 Q1008 TEMPO TSRA
17:00
V
23 °C 10 km+ - 290° 290° 6 kt METAR LFBA 161500Z AUTO 29006KT 240V320 9999 FEW034/// ///CB 23/18 Q1008 TEMPO TSRA
Dados mais antigos

Nós e terceiros acompanhamos seu comportamento na internet em nosso site com cookies. Se você continuar, nós assumimos que você concorda com nossa política de cookies. Saiba mais